Time;durP1;ratioP1;P1;durP2;ratioP2;P2;SDS_P1;SDS_P2;PMS_P1;PMS_P2;Temp;Humidity;BMP_temperature;BMP_pressure;BME280_temperature;BME280_humidity;BME280_pressure;Samples;Min_cycle;Max_cycle;Signal;HPM_P1;HPM_P2
2023/06/16 00:01:23;;;;;;;13.23;12.00;;;14.00;86.70;;;;;;5031097;28;20079;-45
2023/06/16 00:03:51;;;;;;;13.05;11.73;;;14.00;86.60;;;;;;5034888;28;20041;-44
2023/06/16 00:06:19;;;;;;;13.90;12.60;;;14.00;86.70;;;;;;5019409;28;20049;-44
2023/06/16 00:08:47;;;;;;;13.63;12.23;;;13.90;86.90;;;;;;5026190;28;20057;-45
2023/06/16 00:11:15;;;;;;;14.23;12.88;;;14.00;86.90;;;;;;5029214;28;20026;-44
2023/06/16 00:13:42;;;;;;;14.27;12.77;;;13.90;86.90;;;;;;5038757;28;20072;-45
2023/06/16 00:16:12;;;;;;;14.40;13.05;;;13.90;86.80;;;;;;5044783;28;20367;-44
2023/06/16 00:18:43;;;;;;;13.95;12.55;;;13.90;86.70;;;;;;5013643;28;20037;-45
2023/06/16 00:21:14;;;;;;;14.07;12.68;;;13.90;86.60;;;;;;5023092;28;20039;-46
2023/06/16 00:23:41;;;;;;;14.52;13.13;;;13.90;86.50;;;;;;5026295;28;20415;-44
2023/06/16 00:26:08;;;;;;;13.20;11.82;;;13.80;86.60;;;;;;5013497;28;20120;-44
2023/06/16 00:28:38;;;;;;;15.27;13.55;;;13.70;86.80;;;;;;5013765;28;20354;-43
2023/06/16 00:31:05;;;;;;;15.65;14.02;;;13.70;86.90;;;;;;5029738;28;20025;-45
2023/06/16 00:33:36;;;;;;;14.52;13.02;;;13.70;87.00;;;;;;5052214;28;20064;-44
2023/06/16 00:36:03;;;;;;;12.95;11.65;;;13.70;87.30;;;;;;5047511;28;20085;-45
2023/06/16 00:38:30;;;;;;;12.93;11.63;;;13.70;87.10;;;;;;5052668;28;20035;-44
2023/06/16 00:40:57;;;;;;;13.93;12.52;;;13.60;87.10;;;;;;5047152;28;20036;-44
2023/06/16 00:43:22;;;;;;;13.30;11.90;;;13.50;87.00;;;;;;5041803;28;20092;-44
2023/06/16 00:45:51;;;;;;;12.77;11.50;;;13.60;86.70;;;;;;5020794;28;20600;-44
2023/06/16 00:48:18;;;;;;;12.43;11.23;;;13.50;86.60;;;;;;5051891;28;20666;-44
2023/06/16 00:50:50;;;;;;;13.63;10.93;;;13.40;86.70;;;;;;5031957;28;20025;-44
2023/06/16 00:53:17;;;;;;;13.52;12.02;;;13.40;86.70;;;;;;5047386;28;20025;-47
2023/06/16 00:55:46;;;;;;;13.05;11.70;;;13.40;86.60;;;;;;5013271;28;20026;-44
2023/06/16 00:58:14;;;;;;;11.80;10.70;;;13.30;86.40;;;;;;5023858;28;20033;-45
2023/06/16 01:00:41;;;;;;;14.13;12.45;;;13.30;86.50;;;;;;5034504;28;20033;-44
2023/06/16 01:03:12;;;;;;;14.52;12.98;;;13.30;86.70;;;;;;5047872;28;20474;-44
2023/06/16 01:05:40;;;;;;;13.85;12.38;;;13.30;86.80;;;;;;5046168;28;20104;-44
2023/06/16 01:08:20;;;;;;;15.75;14.15;;;13.30;86.90;;;;;;5012161;28;20313;-44
2023/06/16 01:11:09;;;;;;;17.40;15.70;;;13.30;87.20;;;;;;5045170;28;20032;-43
2023/06/16 01:13:47;;;;;;;20.27;18.15;;;13.40;87.40;;;;;;5052358;28;20106;-46
2023/06/16 01:16:21;;;;;;;20.23;18.13;;;13.40;87.50;;;;;;5047911;28;20035;-45
2023/06/16 01:18:51;;;;;;;21.63;19.45;;;13.40;87.60;;;;;;5030865;28;20029;-44
2023/06/16 01:21:37;;;;;;;20.20;18.38;;;13.50;87.80;;;;;;5046267;28;20036;-44
2023/06/16 01:24:12;;;;;;;20.92;18.90;;;13.50;87.90;;;;;;5050321;28;20021;-44
2023/06/16 01:26:44;;;;;;;20.30;18.48;;;13.40;87.90;;;;;;5047463;28;20036;-44
2023/06/16 01:29:13;;;;;;;22.65;20.23;;;13.40;87.80;;;;;;5036379;28;20447;-44
2023/06/16 01:31:43;;;;;;;23.63;21.37;;;13.40;87.90;;;;;;5032214;28;20045;-45
2023/06/16 01:34:12;;;;;;;23.73;21.27;;;13.40;87.80;;;;;;5024123;28;20034;-44
2023/06/16 01:36:41;;;;;;;21.95;19.65;;;13.20;87.90;;;;;;5015994;28;20452;-43
2023/06/16 01:39:09;;;;;;;21.08;18.95;;;13.20;88.10;;;;;;5028013;28;20040;-44
2023/06/16 01:41:39;;;;;;;23.58;21.27;;;13.20;88.00;;;;;;5012745;28;20037;-44
2023/06/16 01:44:09;;;;;;;23.67;21.23;;;13.20;87.90;;;;;;5023288;28;20030;-43
2023/06/16 01:46:36;;;;;;;23.80;21.58;;;13.10;87.90;;;;;;5042381;28;20486;-44
2023/06/16 01:49:04;;;;;;;24.73;22.42;;;13.00;87.90;;;;;;5053058;28;20091;-44
2023/06/16 01:51:31;;;;;;;24.20;21.83;;;13.00;88.10;;;;;;5050141;28;20111;-44
2023/06/16 01:53:58;;;;;;;25.08;22.77;;;13.00;88.20;;;;;;5038784;28;20343;-45
2023/06/16 01:56:25;;;;;;;22.42;20.23;;;12.90;88.40;;;;;;5034478;28;20029;-44
2023/06/16 01:58:55;;;;;;;26.15;23.67;;;12.90;88.60;;;;;;5036508;28;20088;-44
2023/06/16 02:01:42;;;;;;;28.13;25.27;;;13.00;88.50;;;;;;5042686;28;20033;-43
2023/06/16 02:04:10;;;;;;;27.23;24.40;;;13.00;88.90;;;;;;5028983;28;20034;-44
2023/06/16 02:07:03;;;;;;;26.55;23.95;;;12.90;89.00;;;;;;5026656;28;20030;-43
2023/06/16 02:09:32;;;;;;;27.42;24.92;;;13.00;88.80;;;;;;5043233;28;20021;-43
2023/06/16 02:12:00;;;;;;;27.88;25.10;;;12.90;88.70;;;;;;5043966;28;20026;-43
2023/06/16 02:14:28;;;;;;;28.73;26.13;;;13.00;88.70;;;;;;5043502;28;20041;-46
2023/06/16 02:16:54;;;;;;;25.67;23.25;;;12.90;88.50;;;;;;5046695;28;20044;-43
2023/06/16 02:19:21;;;;;;;27.10;24.52;;;12.90;88.60;;;;;;5054407;28;20029;-44
2023/06/16 02:21:48;;;;;;;26.42;23.77;;;12.90;88.60;;;;;;5049149;28;20123;-43
2023/06/16 02:24:15;;;;;;;26.83;24.40;;;12.90;88.60;;;;;;5052428;28;20031;-44
2023/06/16 02:26:40;;;;;;;24.52;22.20;;;12.90;88.50;;;;;;5053525;28;20056;-44
2023/06/16 02:29:07;;;;;;;25.17;22.83;;;12.90;88.60;;;;;;5055353;28;20029;-44
2023/06/16 02:31:34;;;;;;;27.92;25.33;;;12.90;88.50;;;;;;5041827;28;20025;-44
2023/06/16 02:34:01;;;;;;;24.50;22.08;;;12.90;88.60;;;;;;5050282;28;20079;-45
2023/06/16 02:36:28;;;;;;;23.20;21.10;;;12.90;88.70;;;;;;5050040;28;20031;-42
2023/06/16 02:38:58;;;;;;;25.88;23.30;;;12.90;88.80;;;;;;5046317;28;20087;-44
2023/06/16 02:41:25;;;;;;;22.20;20.08;;;12.90;88.80;;;;;;5015625;28;20057;-43
2023/06/16 02:43:52;;;;;;;21.65;19.65;;;12.90;88.90;;;;;;5040697;28;20447;-44
2023/06/16 02:46:19;;;;;;;22.52;20.48;;;12.90;89.10;;;;;;5051635;28;20032;-42
2023/06/16 02:48:46;;;;;;;23.58;21.42;;;12.90;89.20;;;;;;5034919;28;20047;-43
2023/06/16 02:51:12;;;;;;;21.77;19.67;;;12.90;89.30;;;;;;5018057;28;20101;-43
2023/06/16 02:53:39;;;;;;;22.75;20.55;;;12.90;89.20;;;;;;5046298;28;20159;-44
2023/06/16 02:56:07;;;;;;;20.75;18.85;;;12.90;89.40;;;;;;5014333;28;20116;-42
2023/06/16 02:58:37;;;;;;;19.95;17.95;;;13.00;89.50;;;;;;5027982;28;20029;-43
2023/06/16 03:01:04;;;;;;;20.77;18.75;;;13.00;89.50;;;;;;5046470;28;20044;-43
2023/06/16 03:03:34;;;;;;;21.35;19.33;;;13.10;89.70;;;;;;5042196;28;20028;-44
2023/06/16 03:06:00;;;;;;;;;;;13.10;89.90;;;;;;5048756;28;20085;-43
2023/06/16 03:08:27;;;;;;;20.65;18.65;;;13.20;90.20;;;;;;5054467;28;19995;-42
2023/06/16 03:10:54;;;;;;;22.55;20.27;;;13.20;90.20;;;;;;5017451;28;20056;-45
2023/06/16 03:13:21;;;;;;;21.65;19.50;;;13.30;90.30;;;;;;5035511;28;20048;-42
2023/06/16 03:15:50;;;;;;;21.92;19.83;;;13.30;90.20;;;;;;5033856;28;20155;-42
2023/06/16 03:18:19;;;;;;;20.20;18.10;;;13.40;90.40;;;;;;5050275;28;20033;-42
2023/06/16 03:20:47;;;;;;;21.27;18.98;;;13.40;90.50;;;;;;5049067;28;20030;-43
2023/06/16 03:23:14;;;;;;;20.63;18.45;;;13.40;90.60;;;;;;5026642;28;20041;-42
2023/06/16 03:25:41;;;;;;;20.73;18.83;;;13.50;90.80;;;;;;5014214;28;20029;-43
2023/06/16 03:28:08;;;;;;;19.75;17.63;;;13.50;90.90;;;;;;5014158;28;20045;-42
2023/06/16 03:30:35;;;;;;;20.98;18.60;;;13.60;91.00;;;;;;5017169;28;20014;-43
2023/06/16 03:33:02;;;;;;;21.10;18.88;;;13.60;91.30;;;;;;5049985;28;20033;-43
2023/06/16 03:35:27;;;;;;;21.05;18.83;;;13.70;91.50;;;;;;5044223;28;20036;-44
2023/06/16 03:37:55;;;;;;;21.98;19.83;;;13.80;91.70;;;;;;5044875;28;20044;-43
2023/06/16 03:40:21;;;;;;;22.42;20.27;;;13.90;91.70;;;;;;5053146;28;20039;-43
2023/06/16 03:42:47;;;;;;;19.42;17.55;;;13.90;91.70;;;;;;5047607;28;20033;-42
2023/06/16 03:45:17;;;;;;;22.25;20.13;;;14.00;91.80;;;;;;5017862;28;20037;-43
2023/06/16 03:47:47;;;;;;;22.38;20.38;;;14.00;92.20;;;;;;5029036;28;20034;-45
2023/06/16 03:50:14;;;;;;;23.48;20.45;;;14.10;92.40;;;;;;5041564;28;20036;-43
2023/06/16 03:52:41;;;;;;;22.20;20.00;;;14.20;92.40;;;;;;5040967;28;20026;-42
2023/06/16 03:55:07;;;;;;;21.60;19.25;;;14.20;92.50;;;;;;5014200;28;20030;-42
2023/06/16 03:57:35;;;;;;;23.52;21.23;;;14.30;92.70;;;;;;5014021;28;20093;-45
2023/06/16 04:00:04;;;;;;;26.33;21.23;;;14.40;92.70;;;;;;5033933;28;20072;-43
2023/06/16 04:02:34;;;;;;;21.45;19.35;;;14.40;92.70;;;;;;5043457;28;20029;-43
2023/06/16 04:05:01;;;;;;;22.60;20.33;;;14.50;92.80;;;;;;5049444;28;20025;-43
2023/06/16 04:07:30;;;;;;;25.42;21.58;;;14.50;92.70;;;;;;5049306;28;20025;-43
2023/06/16 04:09:56;;;;;;;25.10;22.50;;;14.60;92.70;;;;;;5047313;28;20025;-43
2023/06/16 04:12:22;;;;;;;25.25;22.63;;;14.60;92.70;;;;;;5050984;28;20075;-42
2023/06/16 04:14:49;;;;;;;25.73;22.95;;;14.60;92.70;;;;;;5052419;28;20441;-43
2023/06/16 04:17:14;;;;;;;26.15;22.75;;;14.70;92.80;;;;;;5042382;28;20066;-42
2023/06/16 04:19:41;;;;;;;23.60;21.35;;;14.70;92.80;;;;;;5046088;28;20027;-43
2023/06/16 04:22:08;;;;;;;26.25;23.67;;;14.80;92.90;;;;;;5027981;28;20033;-42
2023/06/16 04:24:38;;;;;;;23.70;21.45;;;14.80;92.90;;;;;;5020885;28;20021;-42
2023/06/16 04:27:06;;;;;;;23.33;21.05;;;14.90;93.00;;;;;;5052345;28;20032;-43
2023/06/16 04:29:41;;;;;;;25.55;23.33;;;14.90;93.00;;;;;;5042326;28;20032;-42
2023/06/16 04:32:11;;;;;;;27.30;24.65;;;15.00;93.00;;;;;;5043998;28;20029;-42
2023/06/16 04:34:40;;;;;;;27.13;24.08;;;14.90;93.00;;;;;;5036233;28;20024;-42
2023/06/16 04:37:11;;;;;;;29.67;26.70;;;15.00;93.00;;;;;;5028258;28;20034;-42
2023/06/16 04:39:42;;;;;;;28.13;25.23;;;15.00;93.00;;;;;;5044725;28;20029;-44
2023/06/16 04:42:09;;;;;;;27.58;24.65;;;15.10;93.00;;;;;;5035041;28;20104;-43
2023/06/16 04:44:37;;;;;;;28.95;26.00;;;15.20;93.00;;;;;;5051564;28;20029;-43
2023/06/16 04:47:02;;;;;;;29.48;26.60;;;15.20;93.00;;;;;;5027139;28;20042;-44
2023/06/16 04:49:28;;;;;;;28.23;25.05;;;15.30;93.00;;;;;;5014228;28;20033;-43
2023/06/16 04:51:56;;;;;;;28.35;25.35;;;15.30;93.00;;;;;;5045388;28;20041;-43
2023/06/16 04:54:22;;;;;;;29.58;26.65;;;15.40;93.20;;;;;;5049331;28;20040;-43
2023/06/16 04:56:49;;;;;;;29.42;26.58;;;15.40;93.30;;;;;;5053016;28;20041;-44
2023/06/16 04:59:15;;;;;;;31.02;27.45;;;15.50;93.40;;;;;;5043496;28;20045;-43
2023/06/16 05:01:42;;;;;;;28.85;25.80;;;15.60;93.40;;;;;;5042363;28;20040;-42
2023/06/16 05:04:08;;;;;;;30.77;27.60;;;15.80;93.50;;;;;;5046706;28;20048;-45
2023/06/16 05:06:39;;;;;;;29.50;26.42;;;15.90;93.60;;;;;;5037131;28;20108;-45
2023/06/16 05:09:12;;;;;;;27.25;24.65;;;15.90;93.50;;;;;;5015612;28;20424;-44
2023/06/16 05:11:42;;;;;;;23.52;21.05;;;16.00;93.50;;;;;;5052170;28;20037;-43
2023/06/16 05:14:09;;;;;;;23.88;21.55;;;16.00;93.40;;;;;;5040044;28;20478;-43
2023/06/16 05:16:36;;;;;;;21.90;19.73;;;16.10;93.50;;;;;;5047489;28;20099;-42
2023/06/16 05:19:03;;;;;;;22.60;20.13;;;16.10;93.30;;;;;;5046027;28;20423;-43
2023/06/16 05:21:30;;;;;;;26.05;22.40;;;16.20;93.30;;;;;;5038731;28;20037;-45
2023/06/16 05:23:57;;;;;;;24.13;21.60;;;16.20;93.10;;;;;;5034484;28;20029;-43
2023/06/16 05:26:25;;;;;;;23.65;20.30;;;16.20;93.00;;;;;;5056648;28;20431;-43
2023/06/16 05:28:52;;;;;;;21.90;18.75;;;16.30;93.00;;;;;;5047636;28;20059;-43
2023/06/16 05:31:19;;;;;;;20.25;17.63;;;16.30;92.90;;;;;;5046408;28;20428;-45
2023/06/16 05:33:46;;;;;;;18.52;16.70;;;16.40;92.50;;;;;;5049565;28;20041;-43
2023/06/16 05:36:12;;;;;;;21.70;16.85;;;16.40;92.00;;;;;;5053564;28;20033;-43
2023/06/16 05:38:39;;;;;;;19.27;17.30;;;16.40;91.80;;;;;;5022373;28;20439;-44
2023/06/16 05:41:06;;;;;;;16.98;15.40;;;16.60;91.50;;;;;;5031924;28;20033;-46
2023/06/16 05:43:32;;;;;;;13.23;12.02;;;16.80;91.20;;;;;;5049360;28;20038;-43
2023/06/16 05:46:00;;;;;;;15.27;12.75;;;16.90;90.90;;;;;;5043455;28;20025;-44
2023/06/16 05:48:27;;;;;;;14.77;13.38;;;16.90;90.10;;;;;;5043162;28;20056;-44
2023/06/16 05:50:53;;;;;;;15.30;13.63;;;16.90;89.60;;;;;;5051046;28;20024;-45
2023/06/16 05:53:20;;;;;;;15.35;13.88;;;17.00;89.10;;;;;;5030951;28;20084;-46
2023/06/16 05:55:47;;;;;;;14.93;13.50;;;17.00;88.80;;;;;;5052516;28;20435;-45
2023/06/16 05:58:18;;;;;;;15.70;13.38;;;17.10;89.10;;;;;;5049800;28;20039;-45
2023/06/16 06:00:47;;;;;;;15.35;13.73;;;17.30;88.80;;;;;;5037270;28;20064;-49
2023/06/16 06:03:17;;;;;;;14.38;12.80;;;17.40;88.60;;;;;;5028178;28;20042;-45
2023/06/16 06:05:44;;;;;;;18.73;14.68;;;17.50;88.00;;;;;;5030898;28;20029;-46
2023/06/16 06:08:15;;;;;;;14.05;12.20;;;17.70;88.00;;;;;;5032516;28;20056;-46
2023/06/16 06:10:42;;;;;;;15.52;12.25;;;17.90;87.20;;;;;;5034783;28;20036;-46
2023/06/16 06:13:08;;;;;;;13.88;12.48;;;18.10;86.20;;;;;;5031912;28;20050;-50
2023/06/16 06:15:35;;;;;;;14.20;12.32;;;18.30;85.50;;;;;;5045609;28;20033;-47
2023/06/16 06:18:02;;;;;;;13.00;11.63;;;18.20;85.20;;;;;;5022203;28;20030;-47
2023/06/16 06:20:28;;;;;;;14.82;12.85;;;18.20;86.20;;;;;;5032018;28;20423;-46
2023/06/16 06:22:55;;;;;;;13.20;11.85;;;18.30;85.80;;;;;;5051111;28;20516;-47
2023/06/16 06:25:22;;;;;;;14.88;12.52;;;18.40;85.80;;;;;;5031731;28;20049;-50
2023/06/16 06:27:49;;;;;;;13.63;11.70;;;18.50;84.80;;;;;;5036106;28;20034;-49
2023/06/16 06:30:16;;;;;;;11.57;9.88;;;18.60;83.40;;;;;;5015418;28;20056;-46
2023/06/16 06:32:42;;;;;;;11.20;9.88;;;18.70;82.40;;;;;;5047176;28;20025;-48
2023/06/16 06:35:12;;;;;;;11.60;9.27;;;18.80;81.10;;;;;;5040155;28;20083;-47
2023/06/16 06:37:39;;;;;;;13.25;9.77;;;18.70;81.10;;;;;;5046818;28;20108;-50
2023/06/16 06:40:07;;;;;;;14.50;10.55;;;18.70;81.60;;;;;;5032157;28;20060;-48
2023/06/16 06:42:36;;;;;;;11.15;9.23;;;18.60;82.00;;;;;;5035084;28;20052;-50
2023/06/16 06:45:08;;;;;;;10.38;9.30;;;18.60;81.80;;;;;;5032666;28;20022;-50
2023/06/16 06:47:34;;;;;;;10.15;9.15;;;18.60;81.40;;;;;;5046532;28;20658;-48
2023/06/16 06:50:03;;;;;;;11.88;8.32;;;18.80;81.80;;;;;;5025025;28;20493;-50
2023/06/16 06:52:30;;;;;;;10.65;8.63;;;18.90;81.10;;;;;;5042144;28;20071;-46
2023/06/16 06:54:56;;;;;;;10.65;8.38;;;19.00;79.20;;;;;;5030276;28;20029;-47
2023/06/16 06:57:23;;;;;;;10.25;7.72;;;19.10;78.50;;;;;;5034615;28;20025;-47
2023/06/16 06:59:50;;;;;;;9.55;6.78;;;19.20;77.40;;;;;;5032379;28;20326;-51
2023/06/16 07:02:17;;;;;;;8.60;7.30;;;19.40;77.20;;;;;;5044195;28;20036;-49
2023/06/16 07:04:46;;;;;;;8.20;7.32;;;19.70;75.80;;;;;;5035124;28;20030;-47
2023/06/16 07:07:13;;;;;;;8.18;6.68;;;19.80;74.30;;;;;;5031244;28;20039;-47
2023/06/16 07:09:39;;;;;;;8.88;7.50;;;19.70;74.80;;;;;;5050035;28;20043;-50
2023/06/16 07:12:07;;;;;;;9.38;7.43;;;19.80;74.20;;;;;;5040646;28;20025;-49
2023/06/16 07:14:35;;;;;;;11.90;7.22;;;19.90;74.10;;;;;;5015112;28;20388;-47
2023/06/16 07:17:02;;;;;;;10.15;7.72;;;20.00;74.80;;;;;;5037041;28;20034;-48
2023/06/16 07:19:29;;;;;;;8.95;7.40;;;20.30;74.00;;;;;;5022173;28;20100;-47
2023/06/16 07:22:00;;;;;;;9.07;7.40;;;20.60;71.70;;;;;;5033772;28;20025;-48
2023/06/16 07:24:30;;;;;;;10.82;6.85;;;20.90;70.70;;;;;;5035261;28;20060;-48
2023/06/16 07:26:56;;;;;;;8.40;6.68;;;21.20;69.80;;;;;;5034714;28;20387;-47
2023/06/16 07:29:23;;;;;;;9.65;7.22;;;21.40;70.00;;;;;;5019337;28;20026;-47
2023/06/16 07:31:51;;;;;;;8.80;6.47;;;21.50;68.20;;;;;;5020982;28;20030;-50
2023/06/16 07:34:22;;;;;;;8.40;5.70;;;21.40;67.50;;;;;;5036547;28;20083;-47
2023/06/16 07:36:49;;;;;;;9.88;5.70;;;21.40;67.10;;;;;;5037033;28;20053;-47
2023/06/16 07:39:17;;;;;;;7.45;6.13;;;21.50;66.50;;;;;;5046778;28;20029;-47
2023/06/16 07:41:44;;;;;;;7.20;5.10;;;21.60;66.10;;;;;;5025323;28;20440;-52
2023/06/16 07:44:11;;;;;;;7.88;4.30;;;22.00;65.80;;;;;;5033276;28;20033;-48
2023/06/16 07:46:39;;;;;;;7.55;5.43;;;22.30;64.40;;;;;;5015309;28;20025;-48
2023/06/16 07:49:05;;;;;;;5.88;4.75;;;22.40;63.00;;;;;;5023769;28;21626;-48
2023/06/16 07:51:32;;;;;;;6.45;4.07;;;22.70;63.30;;;;;;5030647;28;20435;-48
2023/06/16 07:53:59;;;;;;;5.78;4.63;;;22.90;63.30;;;;;;5033057;28;20074;-48
2023/06/16 07:56:26;;;;;;;8.05;4.32;;;23.20;61.20;;;;;;5039061;28;20026;-48
2023/06/16 07:58:55;;;;;;;6.50;4.53;;;23.40;61.80;;;;;;5022403;28;20037;-49
2023/06/16 08:01:22;;;;;;;7.75;3.80;;;23.60;61.60;;;;;;5028945;28;20036;-48
2023/06/16 08:03:49;;;;;;;7.22;4.82;;;23.40;61.90;;;;;;5030158;28;20045;-48
2023/06/16 08:06:16;;;;;;;7.22;4.97;;;23.30;61.80;;;;;;5038719;28;20026;-48
2023/06/16 08:08:42;;;;;;;8.10;4.72;;;23.10;62.30;;;;;;5032348;28;20025;-48
2023/06/16 08:11:08;;;;;;;7.88;4.60;;;22.90;62.30;;;;;;5032186;28;20025;-49
2023/06/16 08:13:35;;;;;;;8.95;4.95;;;22.80;63.60;;;;;;5035032;28;20049;-48
2023/06/16 08:16:01;;;;;;;5.85;4.40;;;22.80;63.60;;;;;;5035554;28;20043;-49
2023/06/16 08:18:30;;;;;;;8.05;5.07;;;22.90;63.10;;;;;;5036538;28;20041;-49
2023/06/16 08:21:00;;;;;;;6.25;4.47;;;23.20;61.70;;;;;;5024860;28;20037;-48
2023/06/16 08:23:27;;;;;;;11.45;4.95;;;23.50;61.20;;;;;;5030657;28;20462;-48
2023/06/16 08:25:55;;;;;;;8.55;5.55;;;23.40;61.40;;;;;;5027325;28;20510;-48
2023/06/16 08:28:22;;;;;;;5.07;4.22;;;23.50;60.90;;;;;;5020794;28;20148;-48
2023/06/16 08:30:49;;;;;;;8.63;4.80;;;23.40;61.90;;;;;;5026801;28;20033;-48
2023/06/16 08:33:18;;;;;;;8.13;4.25;;;23.50;62.60;;;;;;5023397;28;20021;-48
2023/06/16 08:35:45;;;;;;;6.40;5.57;;;23.90;60.00;;;;;;5029724;28;20037;-49
2023/06/16 08:38:12;;;;;;;8.52;4.50;;;23.90;60.30;;;;;;5030391;28;20067;-47
2023/06/16 08:40:39;;;;;;;5.72;4.63;;;23.90;59.50;;;;;;5027594;28;20037;-48
2023/06/16 08:43:14;;;;;;;6.38;4.32;;;23.80;60.90;;;;;;5028997;28;20470;-48
2023/06/16 08:45:40;;;;;;;5.80;4.03;;;23.80;60.20;;;;;;5033412;28;20033;-48
2023/06/16 08:48:10;;;;;;;5.90;4.53;;;23.90;60.40;;;;;;5030323;28;20025;-49
2023/06/16 08:50:38;;;;;;;6.05;4.75;;;23.90;60.50;;;;;;5034519;28;20363;-49
2023/06/16 08:53:09;;;;;;;8.00;5.00;;;23.60;61.40;;;;;;5031096;28;20049;-48
2023/06/16 08:55:40;;;;;;;8.10;4.85;;;23.80;60.40;;;;;;5031037;28;20021;-49
2023/06/16 08:58:13;;;;;;;6.03;4.60;;;23.90;61.40;;;;;;5032664;28;20028;-49
2023/06/16 09:00:41;;;;;;;7.80;5.40;;;24.10;61.20;;;;;;5037133;28;20040;-48
2023/06/16 09:03:13;;;;;;;6.53;5.18;;;24.40;60.20;;;;;;5024411;28;20034;-48
2023/06/16 09:05:40;;;;;;;6.97;4.95;;;24.50;60.10;;;;;;5043685;28;20466;-50
2023/06/16 09:08:08;;;;;;;6.80;4.82;;;24.40;59.70;;;;;;5012105;28;20054;-48
2023/06/16 09:10:35;;;;;;;9.25;4.82;;;24.40;59.80;;;;;;5024425;28;20025;-51
2023/06/16 09:13:02;;;;;;;8.27;5.18;;;24.30;59.70;;;;;;4986778;28;1142615;-47
2023/06/16 09:15:29;;;;;;;9.23;4.88;;;24.10;59.70;;;;;;5032343;28;20022;-48
2023/06/16 09:17:56;;;;;;;7.40;4.80;;;23.80;61.90;;;;;;5027039;28;20435;-47
2023/06/16 09:20:41;;;;;;;6.93;4.20;;;24.10;60.70;;;;;;5042359;28;20025;-50
2023/06/16 09:23:10;;;;;;;6.13;4.40;;;24.20;60.80;;;;;;5026073;28;20029;-48
2023/06/16 09:25:38;;;;;;;7.18;5.43;;;24.40;59.50;;;;;;5024295;28;20029;-48
2023/06/16 09:28:09;;;;;;;7.88;4.30;;;24.20;58.70;;;;;;5028003;28;20079;-49
2023/06/16 09:30:37;;;;;;;7.18;4.70;;;24.30;60.90;;;;;;5024993;28;20033;-48
2023/06/16 09:33:09;;;;;;;7.78;4.57;;;24.40;59.00;;;;;;5039951;28;20336;-49
2023/06/16 09:35:40;;;;;;;8.20;4.78;;;24.10;59.00;;;;;;5024626;28;20079;-50
2023/06/16 09:38:09;;;;;;;6.25;4.65;;;23.80;60.10;;;;;;5029013;28;20026;-49
2023/06/16 09:40:38;;;;;;;;;;;23.40;61.00;;;;;;5029251;28;20036;-48
2023/06/16 09:43:08;;;;;;;5.67;4.60;;;23.30;61.90;;;;;;5011970;28;20056;-49
2023/06/16 09:45:35;;;;;;;6.88;4.20;;;23.20;63.80;;;;;;5027336;28;20128;-48
2023/06/16 09:48:08;;;;;;;7.88;4.47;;;23.30;64.00;;;;;;5033975;28;20018;-48
2023/06/16 09:50:36;;;;;;;10.32;4.60;;;23.40;64.30;;;;;;5026831;28;20041;-50
2023/06/16 09:53:08;;;;;;;6.78;4.63;;;23.20;62.90;;;;;;5016009;28;20038;-48
2023/06/16 09:55:40;;;;;;;5.72;4.32;;;23.00;63.80;;;;;;5021840;28;20033;-51
2023/06/16 09:58:07;;;;;;;6.30;4.47;;;22.90;64.70;;;;;;5017847;28;20371;-48
2023/06/16 10:00:34;;;;;;;10.60;4.82;;;22.90;65.40;;;;;;5024390;28;20551;-51
2023/06/16 10:03:03;;;;;;;5.70;4.15;;;23.10;63.70;;;;;;5026495;28;20021;-51
2023/06/16 10:05:35;;;;;;;6.55;4.43;;;23.20;63.90;;;;;;5035379;28;20018;-48
2023/06/16 10:08:06;;;;;;;7.68;5.47;;;23.20;63.80;;;;;;5021019;28;20411;-48
2023/06/16 10:10:33;;;;;;;8.63;4.82;;;23.40;61.20;;;;;;5023437;28;20113;-48
2023/06/16 10:13:05;;;;;;;9.60;4.65;;;23.40;62.90;;;;;;5034519;28;20048;-48
2023/06/16 10:15:37;;;;;;;8.23;3.92;;;23.70;61.50;;;;;;5034831;28;20022;-51
2023/06/16 10:18:07;;;;;;;7.38;4.60;;;23.80;61.10;;;;;;5027083;28;20038;-49
2023/06/16 10:20:37;;;;;;;4.53;3.70;;;23.90;60.70;;;;;;5032363;28;20108;-48
2023/06/16 10:23:04;;;;;;;7.72;4.30;;;23.70;61.50;;;;;;5035759;28;20021;-48
2023/06/16 10:25:33;;;;;;;6.38;4.45;;;23.60;62.60;;;;;;5032036;28;20022;-48
2023/06/16 10:28:05;;;;;;;6.00;3.70;;;23.60;61.10;;;;;;5027879;28;20018;-48
2023/06/16 10:30:34;;;;;;;4.82;3.97;;;23.70;61.20;;;;;;5026313;28;20022;-50
2023/06/16 10:33:25;;;;;;;6.00;4.32;;;23.50;61.20;;;;;;5032868;28;20375;-48
2023/06/16 10:35:57;;;;;;;7.47;3.80;;;23.70;61.00;;;;;;5031718;28;20037;-48
2023/06/16 10:38:41;;;;;;;7.18;4.40;;;23.80;61.50;;;;;;5027859;28;20034;-48
2023/06/16 10:41:14;;;;;;;8.85;4.93;;;23.90;59.40;;;;;;5028179;28;20541;-48
2023/06/16 10:43:42;;;;;;;6.22;4.03;;;23.70;59.00;;;;;;5034168;28;20055;-53
2023/06/16 10:46:26;;;;;;;6.85;4.38;;;23.70;59.10;;;;;;5030968;28;20470;-48
2023/06/16 10:49:11;;;;;;;5.93;5.18;;;24.00;59.10;;;;;;5024778;28;20021;-50
2023/06/16 10:51:57;;;;;;;7.22;4.43;;;24.10;58.20;;;;;;5034233;28;20022;-49
2023/06/16 10:54:44;;;;;;;6.72;4.38;;;24.10;59.10;;;;;;5035617;28;20033;-49
2023/06/16 10:57:12;;;;;;;5.93;4.47;;;24.30;57.40;;;;;;5020273;28;20041;-49
2023/06/16 11:00:12;;;;;;;6.40;4.63;;;24.10;56.20;;;;;;5019581;28;20588;-51
2023/06/16 11:03:03;;;;;;;5.45;4.82;;;24.20;57.00;;;;;;5030281;28;20041;-48
2023/06/16 11:05:40;;;;;;;6.35;4.35;;;24.20;56.20;;;;;;5036883;28;20029;-49
2023/06/16 11:08:16;;;;;;;5.90;5.05;;;24.30;56.20;;;;;;5026193;28;20032;-48
2023/06/16 11:10:52;;;;;;;5.57;4.68;;;24.10;55.90;;;;;;5031358;28;20021;-49
2023/06/16 11:13:22;;;;;;;5.72;4.30;;;23.90;56.80;;;;;;5029717;28;20471;-48
2023/06/16 11:15:51;;;;;;;6.00;4.75;;;23.80;57.20;;;;;;5029947;28;20033;-50
2023/06/16 11:18:22;;;;;;;8.30;4.53;;;23.90;57.70;;;;;;5033297;28;20430;-50
2023/06/16 11:20:50;;;;;;;5.65;4.72;;;23.80;56.40;;;;;;5030319;28;20144;-48
2023/06/16 11:23:17;;;;;;;7.03;4.82;;;23.60;57.30;;;;;;5033880;28;20021;-48
2023/06/16 11:25:44;;;;;;;8.57;4.70;;;23.60;57.70;;;;;;5030313;28;20068;-48
2023/06/16 11:28:11;;;;;;;6.10;4.65;;;23.90;58.00;;;;;;5033744;28;20506;-53
2023/06/16 11:30:38;;;;;;;7.03;4.40;;;23.90;57.60;;;;;;5033157;28;20509;-48
2023/06/16 11:33:06;;;;;;;6.95;4.53;;;23.90;57.30;;;;;;5008546;28;20521;-48
2023/06/16 11:35:33;;;;;;;4.68;4.15;;;23.80;58.60;;;;;;5031796;28;20026;-48
2023/06/16 11:38:02;;;;;;;6.85;4.80;;;23.80;57.70;;;;;;5032484;28;20022;-50
2023/06/16 11:40:33;;;;;;;6.10;4.67;;;23.90;57.90;;;;;;5013958;28;20040;-48
2023/06/16 11:43:06;;;;;;;5.35;3.78;;;23.70;57.30;;;;;;5024274;28;20666;-49
2023/06/16 11:45:39;;;;;;;6.82;4.43;;;23.60;58.00;;;;;;5029415;28;20113;-51
2023/06/16 11:48:08;;;;;;;6.28;4.28;;;23.90;58.00;;;;;;5024483;28;20079;-49
2023/06/16 11:50:36;;;;;;;5.97;5.13;;;23.90;57.60;;;;;;5026714;28;20029;-48
2023/06/16 11:53:04;;;;;;;6.82;4.75;;;23.70;59.30;;;;;;5033184;28;20044;-54
2023/06/16 11:55:31;;;;;;;7.28;5.07;;;23.80;60.00;;;;;;5028941;28;20026;-50
2023/06/16 11:57:59;;;;;;;9.32;5.40;;;23.70;59.00;;;;;;5011466;28;20057;-48
2023/06/16 12:00:27;;;;;;;7.63;5.30;;;23.70;59.00;;;;;;5034761;28;20026;-51
2023/06/16 12:02:54;;;;;;;6.35;4.70;;;23.50;59.00;;;;;;5031003;28;20504;-49
2023/06/16 12:05:30;;;;;;;7.53;5.25;;;23.40;59.30;;;;;;5017631;28;20053;-48
2023/06/16 12:07:56;;;;;;;6.68;4.60;;;23.30;59.90;;;;;;5031512;28;20029;-52
2023/06/16 12:10:25;;;;;;;7.72;4.90;;;23.50;60.40;;;;;;5024326;28;20037;-53
2023/06/16 12:12:52;;;;;;;7.15;5.38;;;23.40;58.10;;;;;;5035906;28;20364;-48
2023/06/16 12:15:21;;;;;;;12.68;5.30;;;23.30;57.80;;;;;;5017906;28;20045;-48
2023/06/16 12:17:48;;;;;;;5.60;4.95;;;23.00;59.00;;;;;;5022878;28;20344;-48
2023/06/16 12:20:17;;;;;;;5.38;4.88;;;23.10;60.20;;;;;;5032439;28;20427;-52
2023/06/16 12:22:44;;;;;;;6.68;4.40;;;23.00;60.40;;;;;;5022046;28;20033;-51
2023/06/16 12:25:29;;;;;;;9.25;4.97;;;23.10;61.00;;;;;;5028904;28;20041;-48
2023/06/16 12:27:57;;;;;;;8.23;5.13;;;23.10;60.10;;;;;;5027803;28;20030;-49
2023/06/16 12:30:32;;;;;;;6.05;4.50;;;23.00;60.20;;;;;;5032992;28;20107;-48
2023/06/16 12:33:09;;;;;;;5.63;4.20;;;22.90;60.40;;;;;;5030593;28;20033;-48
2023/06/16 12:35:36;;;;;;;7.28;5.32;;;22.60;60.40;;;;;;5022854;28;20030;-48
2023/06/16 12:38:02;;;;;;;7.30;4.38;;;22.40;61.80;;;;;;5022806;28;20041;-51
2023/06/16 12:40:32;;;;;;;6.07;4.75;;;22.50;62.60;;;;;;5031113;28;20450;-54
2023/06/16 12:43:24;;;;;;;7.07;4.82;;;22.60;61.70;;;;;;5023638;28;20052;-50
2023/06/16 12:45:51;;;;;;;6.40;4.50;;;22.60;60.00;;;;;;5029183;28;20107;-49